Time;durP1;ratioP1;P1;durP2;ratioP2;P2;SDS_P1;SDS_P2;PMS_P1;PMS_P2;Temp;Humidity;BMP_temperature;BMP_pressure;BME280_temperature;BME280_humidity;BME280_pressure;Samples;Min_cycle;Max_cycle;Signal;HPM_P1;HPM_P2
2021/06/24 00:01:24;;;;;;;29.33;14.23;;;;;;;25.93;61.78;99868.94;4835626;29;20057;-52
2021/06/24 00:03:50;;;;;;;33.53;15.98;;;;;;;25.91;62.38;99865.56;4804754;29;20132;-54
2021/06/24 00:06:16;;;;;;;35.25;14.38;;;;;;;25.88;62.27;99867.69;4838472;29;20098;-56
2021/06/24 00:08:41;;;;;;;34.55;15.32;;;;;;;25.85;63.05;99868.00;4836961;29;20098;-51
2021/06/24 00:11:12;;;;;;;32.35;17.30;;;;;;;25.81;63.47;99866.56;4818368;29;20053;-50
2021/06/24 00:13:39;;;;;;;28.05;15.13;;;;;;;25.77;63.42;99863.38;4835357;29;20048;-52
2021/06/24 00:16:06;;;;;;;34.70;14.88;;;;;;;25.74;63.97;99861.00;4836748;29;20126;-53
2021/06/24 00:18:33;;;;;;;27.23;13.50;;;;;;;25.71;63.12;99854.13;4837606;29;20046;-53
2021/06/24 00:20:59;;;;;;;29.63;13.43;;;;;;;25.68;64.14;99848.28;4834477;29;20052;-55
2021/06/24 00:23:25;;;;;;;30.10;15.27;;;;;;;25.65;64.15;99854.72;4820025;29;20046;-52
2021/06/24 00:25:50;;;;;;;36.40;15.25;;;;;;;25.62;64.74;99857.69;4834002;29;20181;-53
2021/06/24 00:28:17;;;;;;;27.58;14.80;;;;;;;25.56;64.12;99858.25;4838369;29;20046;-53
2021/06/24 00:30:47;;;;;;;30.58;14.45;;;;;;;25.55;64.14;99861.00;4819273;29;20497;-53
2021/06/24 00:33:13;;;;;;;27.48;13.07;;;;;;;25.53;63.98;99855.84;4837728;29;20082;-54
2021/06/24 00:35:39;;;;;;;33.95;14.48;;;;;;;25.53;63.65;99858.50;4838543;29;20048;-55
2021/06/24 00:38:05;;;;;;;41.35;18.35;;;;;;;25.54;63.24;99860.16;4839122;29;20038;-53
2021/06/24 00:40:33;;;;;;;38.00;17.90;;;;;;;25.56;62.90;99863.56;4822565;29;20050;-54
2021/06/24 00:43:00;;;;;;;;;;;;;;;25.57;62.86;99875.91;4839327;29;20054;-53
2021/06/24 00:45:26;;;;;;;30.48;13.80;;;;;;;25.59;61.81;99873.91;4822153;29;19955;-56
2021/06/24 00:47:52;;;;;;;35.10;14.82;;;;;;;25.62;62.22;99878.97;4834794;29;20073;-55
2021/06/24 00:50:18;;;;;;;32.42;14.68;;;;;;;25.63;61.87;99885.16;4817270;29;20052;-54
2021/06/24 00:52:44;;;;;;;29.83;14.63;;;;;;;25.64;62.40;99885.00;4806490;29;20561;-55
2021/06/24 00:55:17;;;;;;;32.05;14.57;;;;;;;25.63;63.29;99888.66;4838578;29;20781;-52
2021/06/24 00:57:45;;;;;;;31.97;15.00;;;;;;;25.60;64.10;99893.41;4837479;29;20078;-54
2021/06/24 01:00:12;;;;;;;28.23;14.00;;;;;;;25.56;63.93;99892.88;4833969;29;20045;-53
2021/06/24 01:02:39;;;;;;;30.60;15.05;;;;;;;25.53;64.78;99894.94;4839113;29;20042;-54
2021/06/24 01:05:05;;;;;;;38.03;15.63;;;;;;;25.50;65.00;99897.88;4804733;29;20045;-54
2021/06/24 01:07:31;;;;;;;26.67;13.73;;;;;;;25.46;64.64;99886.69;4838949;29;20050;-53
2021/06/24 01:10:16;;;;;;;28.73;14.52;;;;;;;25.47;63.92;99890.19;4831843;29;20054;-55
2021/06/24 01:12:42;;;;;;;29.35;15.02;;;;;;;25.45;63.65;99889.47;4838396;29;20060;-56
2021/06/24 01:15:08;;;;;;;37.83;14.95;;;;;;;25.47;63.84;99898.19;4838284;29;20045;-54
2021/06/24 01:17:34;;;;;;;26.00;14.57;;;;;;;25.47;64.09;99906.16;4837878;29;20053;-55
2021/06/24 01:20:01;;;;;;;34.15;16.05;;;;;;;25.46;63.91;99902.66;4816735;29;20164;-55
2021/06/24 01:22:31;;;;;;;29.27;14.93;;;;;;;25.47;64.18;99903.50;4820357;29;20050;-54
2021/06/24 01:24:56;;;;;;;29.08;15.20;;;;;;;25.46;64.30;99910.66;4822327;29;20197;-55
2021/06/24 01:27:23;;;;;;;34.33;15.27;;;;;;;25.45;63.94;99906.28;4822132;29;20046;-54
2021/06/24 01:29:49;;;;;;;25.75;13.77;;;;;;;25.48;63.53;99911.34;4817747;29;20053;-54
2021/06/24 01:32:15;;;;;;;28.73;15.13;;;;;;;25.48;64.39;99903.38;4838959;29;20046;-53
2021/06/24 01:34:42;;;;;;;33.63;15.07;;;;;;;25.47;63.88;99908.81;4821982;29;20507;-53
2021/06/24 01:37:08;;;;;;;29.05;14.65;;;;;;;25.49;64.55;99904.22;4821642;29;20092;-55
2021/06/24 01:39:35;;;;;;;22.52;14.30;;;;;;;25.47;65.11;99904.34;4836905;29;20085;-51
2021/06/24 01:42:02;;;;;;;32.15;15.10;;;;;;;25.44;64.52;99901.94;4833360;29;20058;-56
2021/06/24 01:44:36;;;;;;;27.75;14.68;;;;;;;25.45;64.13;99897.47;4804487;29;20058;-53
2021/06/24 01:47:04;;;;;;;23.27;14.52;;;;;;;25.46;64.14;99899.16;4831544;29;20046;-55
2021/06/24 01:49:30;;;;;;;26.73;15.20;;;;;;;25.38;64.08;99886.56;4818372;29;20046;-55
2021/06/24 01:51:57;;;;;;;25.42;14.75;;;;;;;25.48;64.33;99911.34;4833809;29;20064;-54
2021/06/24 01:54:23;;;;;;;32.13;15.43;;;;;;;25.50;64.07;99908.53;4832699;29;20050;-54
2021/06/24 01:56:49;;;;;;;26.67;15.63;;;;;;;25.52;64.89;99910.09;4834033;29;20050;-56
2021/06/24 01:59:15;;;;;;;24.40;14.48;;;;;;;25.52;64.88;99918.06;5283492;23;20062;-53
2021/06/24 02:02:02;;;;;;;30.30;14.85;;;;;;;25.50;65.11;99909.38;4815173;29;20719;-54
2021/06/24 02:04:54;;;;;;;28.42;15.13;;;;;;;25.50;64.81;99922.69;4812080;29;20396;-52
2021/06/24 02:07:42;;;;;;;33.97;15.23;;;;;;;25.49;64.94;99920.19;4818219;29;20578;-56
2021/06/24 02:10:34;;;;;;;32.92;15.73;;;;;;;25.49;65.15;99921.00;4802055;29;20045;-56
2021/06/24 02:13:01;;;;;;;23.73;15.02;;;;;;;25.50;65.19;99913.84;4804710;29;20046;-55
2021/06/24 02:15:27;;;;;;;27.10;15.43;;;;;;;25.51;65.55;99918.19;4804668;29;20200;-55
2021/06/24 02:17:53;;;;;;;26.17;15.30;;;;;;;25.51;65.72;99905.72;4803486;29;20530;-57
2021/06/24 02:20:29;;;;;;;29.85;15.02;;;;;;;25.52;65.64;99920.72;4799623;29;20574;-54
2021/06/24 02:23:03;;;;;;;27.85;14.48;;;;;;;25.52;66.17;99909.25;4803157;29;20047;-52
2021/06/24 02:25:34;;;;;;;25.55;14.35;;;;;;;25.48;66.57;99908.69;4803952;29;20492;-51
2021/06/24 02:28:10;;;;;;;32.45;15.43;;;;;;;25.51;66.27;99912.88;4809662;29;20538;-54
2021/06/24 02:30:59;;;;;;;;;;;;;;;25.50;65.91;99920.03;4800856;29;20196;-53
2021/06/24 02:33:26;;;;;;;35.47;16.15;;;;;;;25.51;66.42;99920.88;4805091;29;20028;-53
2021/06/24 02:36:02;;;;;;;32.92;16.40;;;;;;;25.53;66.36;99916.25;4817964;29;20134;-53
2021/06/24 02:41:33;;;;;;;36.45;16.95;;;;;;;25.58;66.26;99912.22;4832754;29;20054;-54
2021/06/24 02:44:00;;;;;;;28.75;16.40;;;;;;;25.59;66.78;99921.03;4820460;29;20516;-54
2021/06/24 02:46:26;;;;;;;29.42;17.20;;;;;;;25.61;66.69;99919.91;4816469;29;20185;-54
2021/06/24 02:49:24;;;;;;;32.25;17.05;;;;;;;25.64;66.21;99913.47;5256260;23;20423;31
2021/06/24 02:51:57;;;;;;;31.33;17.42;;;;;;;25.68;66.34;99910.38;4783857;29;20207;-54
2021/06/24 02:54:24;;;;;;;32.15;16.77;;;;;;;25.72;66.52;99918.91;4802937;29;20530;-54
2021/06/24 02:57:00;;;;;;;38.58;17.45;;;;;;;25.76;66.60;99914.97;4795784;29;20051;-54
2021/06/24 02:59:45;;;;;;;27.67;17.75;;;;;;;25.80;66.29;99902.22;4801677;29;20100;-55
2021/06/24 03:02:12;;;;;;;40.03;20.67;;;;;;;25.85;66.65;99915.94;4797487;29;20054;-53
2021/06/24 03:04:39;;;;;;;33.65;16.80;;;;;;;25.86;66.55;99902.47;4782391;29;20534;-54
2021/06/24 03:07:06;;;;;;;35.90;17.63;;;;;;;25.88;66.43;99902.31;4800312;29;20051;-55
2021/06/24 03:09:38;;;;;;;33.28;18.67;;;;;;;25.90;66.69;99898.53;4804566;29;20043;-55
2021/06/24 03:12:05;;;;;;;31.75;19.55;;;;;;;25.93;66.44;99892.06;4799351;29;20077;-55
2021/06/24 03:14:32;;;;;;;36.13;22.05;;;;;;;25.95;66.64;99898.94;4795038;29;20142;-55
2021/06/24 03:16:58;;;;;;;39.00;23.35;;;;;;;25.97;66.43;99898.78;4785313;30;20155;-55
2021/06/24 03:19:24;;;;;;;39.97;22.50;;;;;;;26.01;66.42;99897.53;4787700;29;20609;-54
2021/06/24 03:22:02;;;;;;;41.13;21.65;;;;;;;26.07;66.56;99896.91;4783118;29;20051;-54
2021/06/24 03:24:33;;;;;;;43.38;24.55;;;;;;;26.11;66.29;99901.84;4802130;29;20162;-54
2021/06/24 03:27:00;;;;;;;39.38;22.25;;;;;;;26.15;66.29;99895.22;4786501;29;20105;-54
2021/06/24 03:29:27;;;;;;;45.40;25.30;;;;;;;26.21;65.96;99901.78;4798752;29;20142;-55
2021/06/24 03:31:53;;;;;;;38.78;22.80;;;;;;;26.26;64.98;99906.72;4801566;29;20125;-54
2021/06/24 03:34:27;;;;;;;38.40;24.42;;;;;;;26.31;64.53;99905.28;4787180;29;20403;-54
2021/06/24 03:36:53;;;;;;;38.97;22.02;;;;;;;26.37;63.43;99903.84;4786935;29;20074;-54
2021/06/24 03:39:22;;;;;;;34.35;20.48;;;;;;;26.42;64.05;99909.59;4787030;29;20051;-54
2021/06/24 03:41:48;;;;;;;41.28;23.95;;;;;;;26.47;64.26;99905.47;4801310;29;20053;-53
2021/06/24 03:44:14;;;;;;;38.55;23.52;;;;;;;26.54;63.98;99903.88;4803806;29;20047;-54
2021/06/24 03:46:41;;;;;;;44.45;27.45;;;;;;;26.60;64.07;99905.13;4803363;29;20058;-55
2021/06/24 03:49:07;;;;;;;47.08;28.05;;;;;;;26.64;62.77;99911.00;4799351;29;20050;-54
2021/06/24 03:51:34;;;;;;;42.28;25.52;;;;;;;26.68;63.74;99904.38;4796523;29;20469;-53
2021/06/24 03:54:02;;;;;;;51.67;27.15;;;;;;;26.73;62.98;99905.59;4802513;29;20478;-54
2021/06/24 03:56:33;;;;;;;42.45;27.08;;;;;;;26.79;63.25;99904.16;4786985;29;20111;-56
2021/06/24 03:59:09;;;;;;;49.67;27.25;;;;;;;26.85;62.27;99900.91;4794071;29;20141;-55
2021/06/24 04:01:42;;;;;;;47.10;26.17;;;;;;;26.90;62.23;99904.00;4791699;29;20138;-55
2021/06/24 04:04:10;;;;;;;40.40;24.48;;;;;;;26.95;61.96;99897.19;4784682;29;20503;-55
2021/06/24 04:06:43;;;;;;;50.80;27.98;;;;;;;27.01;61.40;99897.59;4801492;29;20054;-54
2021/06/24 04:09:09;;;;;;;47.50;26.20;;;;;;;27.06;61.20;99890.78;4802694;29;20096;-54
2021/06/24 04:11:36;;;;;;;48.33;28.65;;;;;;;27.12;61.53;99886.66;4792472;29;20072;-55
2021/06/24 04:14:13;;;;;;;44.63;26.95;;;;;;;27.10;61.57;99877.97;4786373;29;20047;-55
2021/06/24 04:17:03;;;;;;;48.15;28.08;;;;;;;27.23;60.78;99889.09;4800659;29;20043;-54
2021/06/24 04:19:29;;;;;;;39.88;22.65;;;;;;;27.29;59.30;99891.16;4802524;29;20519;-54
2021/06/24 04:21:56;;;;;;;38.72;22.60;;;;;;;27.35;59.41;99887.88;4802248;29;20511;-53
2021/06/24 04:24:30;;;;;;;44.28;24.10;;;;;;;27.39;58.93;99889.22;4801542;29;20070;-56
2021/06/24 04:26:56;;;;;;;44.47;23.38;;;;;;;27.45;58.57;99891.28;4785106;29;20059;-55
2021/06/24 04:29:25;;;;;;;43.53;23.90;;;;;;;27.53;58.55;99894.03;4786475;29;20082;-55
2021/06/24 04:31:51;;;;;;;35.42;22.77;;;;;;;27.59;58.70;99893.41;4785072;29;20085;-54
2021/06/24 04:34:17;;;;;;;29.33;18.65;;;;;;;27.63;58.29;99894.81;4787565;29;20055;-54
2021/06/24 04:36:55;;;;;;;34.35;18.20;;;;;;;27.68;58.14;99892.50;4784321;29;20171;-55
2021/06/24 04:39:26;;;;;;;40.50;23.15;;;;;;;27.75;57.44;99888.19;4799591;29;20059;-55
2021/06/24 04:41:52;;;;;;;35.60;18.58;;;;;;;27.83;57.39;99892.75;4800344;29;20420;-54
2021/06/24 04:44:19;;;;;;;37.10;22.75;;;;;;;27.90;57.69;99892.97;4801818;29;20103;-55
2021/06/24 04:46:46;;;;;;;37.47;19.42;;;;;;;27.96;55.98;99887.81;4787721;29;20084;-56
2021/06/24 04:49:13;;;;;;;33.15;20.35;;;;;;;28.03;55.93;99886.19;4786767;29;20043;-54
2021/06/24 04:51:45;;;;;;;33.25;18.15;;;;;;;28.11;56.19;99888.88;4798503;29;20124;-56
2021/06/24 04:54:13;;;;;;;26.58;15.32;;;;;;;28.18;54.49;99891.78;4772270;29;20054;-55
2021/06/24 04:56:42;;;;;;;29.15;15.20;;;;;;;28.28;53.39;99889.00;4785998;29;20195;-55
2021/06/24 04:59:10;;;;;;;17.75;10.95;;;;;;;28.36;53.35;99889.88;4803029;29;20129;-59
2021/06/24 05:01:38;;;;;;;27.98;14.65;;;;;;;28.45;52.58;99888.91;4802439;29;20047;-55
2021/06/24 05:04:22;;;;;;;30.75;15.32;;;;;;;28.53;53.00;99886.25;4792188;29;20074;-58
2021/06/24 05:06:52;;;;;;;26.70;14.00;;;;;;;28.61;52.86;99888.13;4798234;29;20502;-58
2021/06/24 05:09:24;;;;;;;21.88;11.05;;;;;;;28.70;51.58;99881.78;4802148;29;20103;-59
2021/06/24 05:11:50;;;;;;;20.98;9.88;;;;;;;28.80;49.06;99887.00;4792356;29;20043;-58
2021/06/24 05:14:15;;;;;;;20.27;9.70;;;;;;;28.88;48.73;99879.00;4802500;29;20035;-57
2021/06/24 05:16:41;;;;;;;19.27;9.70;;;;;;;28.96;48.34;99885.22;4803055;29;20051;-59
2021/06/24 05:19:08;;;;;;;20.60;10.07;;;;;;;29.05;48.45;99888.72;4801130;29;20047;-59
2021/06/24 05:21:33;;;;;;;16.42;8.10;;;;;;;29.14;47.35;99889.59;4802821;29;20112;-59
2021/06/24 05:23:59;;;;;;;14.50;9.07;;;;;;;29.27;47.79;99895.25;4801821;29;20573;-59
2021/06/24 05:26:25;;;;;;;17.67;8.90;;;;;;;29.33;47.97;99887.44;4802328;29;20046;-58
2021/06/24 05:28:50;;;;;;;16.88;8.73;;;;;;;29.40;48.19;99890.28;4803608;29;20046;-58
2021/06/24 05:31:16;;;;;;;25.15;10.45;;;;;;;29.47;48.83;99888.59;5278114;24;20079;-58
2021/06/24 05:33:42;;;;;;;27.73;11.95;;;;;;;29.56;48.74;99889.44;4797912;29;20051;-59
2021/06/24 05:36:08;;;;;;;28.05;12.02;;;;;;;29.66;49.45;99890.94;4795873;29;20054;-59
2021/06/24 05:38:33;;;;;;;29.58;13.27;;;;;;;29.74;49.26;99887.38;4802271;29;20485;-59
2021/06/24 05:41:16;;;;;;;24.08;11.13;;;;;;;29.79;47.41;99888.53;5179956;24;20064;31
2021/06/24 05:43:42;;;;;;;23.77;12.52;;;;;;;29.87;46.77;99883.19;4780518;29;20059;-58
2021/06/24 05:46:07;;;;;;;20.20;8.50;;;;;;;29.94;45.43;99879.84;4786094;30;20043;-59
2021/06/24 05:48:33;;;;;;;16.63;10.40;;;;;;;30.02;45.67;99879.81;4786941;30;20043;-58
2021/06/24 05:51:00;;;;;;;26.70;11.35;;;;;;;30.08;46.67;99879.97;4786913;29;20051;-57
2021/06/24 05:53:25;;;;;;;17.00;9.30;;;;;;;30.12;45.20;99875.09;4784863;29;20127;-58
2021/06/24 05:55:51;;;;;;;23.63;12.27;;;;;;;30.20;46.00;99870.50;4786743;29;20555;-54
2021/06/24 05:58:21;;;;;;;31.70;13.45;;;;;;;30.26;46.03;99867.13;4782561;29;20039;-57
2021/06/24 06:00:48;;;;;;;26.58;11.38;;;;;;;30.34;45.08;99866.28;4781683;29;20130;-56
2021/06/24 06:03:14;;;;;;;21.75;10.82;;;;;;;30.43;45.56;99875.13;4776723;29;20039;-57
2021/06/24 06:05:40;;;;;;;22.30;8.77;;;;;;;30.53;46.03;99875.75;4789955;29;20582;-56
2021/06/24 06:08:07;;;;;;;23.15;9.23;;;;;;;30.60;44.97;99872.22;4784721;30;20047;-60
2021/06/24 06:10:34;;;;;;;20.80;9.57;;;;;;;30.69;45.27;99878.34;4786126;29;20039;-57
2021/06/24 06:12:59;;;;;;;23.80;9.27;;;;;;;30.80;45.25;99887.84;4785819;29;20047;-57
2021/06/24 06:15:25;;;;;;;21.95;8.93;;;;;;;30.83;44.39;99874.09;4787596;29;20431;-58
2021/06/24 06:17:51;;;;;;;27.00;9.80;;;;;;;30.90;45.37;99880.41;4785708;29;20062;-58
2021/06/24 06:23:13;;;;;;;12.73;7.43;;;;;;;31.05;42.04;99882.19;5032760;24;20065;-56
2021/06/24 06:25:40;;;;;;;10.50;4.50;;;;;;;31.16;40.78;99878.22;4840700;29;20045;-59
2021/06/24 06:28:05;;;;;;;11.82;6.50;;;;;;;31.23;41.15;99871.13;4840542;29;20099;-59
2021/06/24 06:30:31;;;;;;;13.80;6.18;;;;;;;31.37;41.74;99872.19;4838330;29;20138;-59
2021/06/24 06:32:57;;;;;;;18.90;6.53;;;;;;;31.53;42.19;99877.41;4837984;29;20091;-60
2021/06/24 06:35:22;;;;;;;14.38;6.50;;;;;;;31.68;42.11;99880.13;4817264;29;20046;-58
2021/06/24 06:37:48;;;;;;;13.85;5.95;;;;;;;31.79;41.92;99879.69;4835644;29;20050;-59
2021/06/24 06:40:14;;;;;;;16.38;5.00;;;;;;;31.96;40.10;99876.66;4835638;29;20069;-59
2021/06/24 06:42:40;;;;;;;13.77;5.72;;;;;;;32.25;41.43;99878.50;5304582;23;20050;-56
2021/06/24 06:45:07;;;;;;;14.00;5.35;;;;;;;32.75;39.49;99866.94;4835179;29;20429;-57
2021/06/24 06:47:33;;;;;;;12.82;4.68;;;;;;;33.38;37.17;99867.13;4835955;29;20048;-58
2021/06/24 06:49:59;;;;;;;12.82;5.00;;;;;;;34.14;36.10;99878.84;4835211;29;20038;-59
2021/06/24 06:52:26;;;;;;;20.17;5.07;;;;;;;34.75;34.40;99877.94;5302913;24;20029;-58
2021/06/24 06:54:52;;;;;;;12.30;4.80;;;;;;;35.47;33.39;99879.91;4829628;29;20056;-57
2021/06/24 06:57:21;;;;;;;9.10;4.22;;;;;;;36.29;32.72;99881.25;4836879;29;20046;-59
2021/06/24 06:59:47;;;;;;;30.63;7.03;;;;;;;37.26;31.89;99889.94;4840742;29;20093;-57
2021/06/24 07:02:13;;;;;;;16.85;4.97;;;;;;;37.54;29.45;99881.34;4848147;29;20054;-58
2021/06/24 07:04:38;;;;;;;11.10;5.78;;;;;;;38.39;28.83;99876.06;4837111;29;20273;-59
2021/06/24 07:07:18;;;;;;;14.27;5.32;;;;;;;39.32;27.08;99881.84;4835516;29;20142;-57
2021/06/24 07:09:44;;;;;;;15.38;5.60;;;;;;;39.85;26.14;99884.53;4840101;29;20081;-59
2021/06/24 07:12:10;;;;;;;15.88;6.00;;;;;;;39.95;26.25;99889.38;4837708;29;20098;-58
2021/06/24 07:14:36;;;;;;;8.40;4.63;;;;;;;40.06;24.68;99894.00;4833568;29;20050;-57
2021/06/24 07:17:02;;;;;;;15.98;5.05;;;;;;;40.62;24.20;99879.66;4838813;29;20042;-59
2021/06/24 07:19:27;;;;;;;11.82;5.05;;;;;;;41.18;23.83;99878.81;4834992;29;20042;-57
2021/06/24 07:21:53;;;;;;;15.75;5.00;;;;;;;41.82;22.61;99876.53;4837220;29;20046;-57
2021/06/24 07:24:21;;;;;;;8.18;4.82;;;;;;;41.69;22.28;99877.72;5289437;24;20062;-54
2021/06/24 07:26:47;;;;;;;;;;;;;;;42.41;22.15;99872.16;4815178;29;20082;-58
2021/06/24 07:29:13;;;;;;;16.80;5.43;;;;;;;42.94;21.92;99876.00;4816178;29;20007;-57
2021/06/24 07:31:40;;;;;;;13.90;4.93;;;;;;;42.75;21.24;99872.84;4820492;29;20125;-60
2021/06/24 07:34:06;;;;;;;11.43;4.90;;;;;;;43.25;20.71;99877.13;4820493;29;20580;-60
2021/06/24 07:36:31;;;;;;;11.50;5.40;;;;;;;42.98;21.09;99864.28;4817209;29;20054;-59
2021/06/24 07:38:57;;;;;;;10.70;4.80;;;;;;;43.01;21.46;99876.63;4817575;29;20050;-59
2021/06/24 07:41:24;;;;;;;11.63;5.22;;;;;;;43.07;21.16;99862.75;4815985;29;20061;-60
2021/06/24 07:46:45;;;;;;;15.02;5.70;;;;;;;43.54;20.75;99863.97;4859277;23;20503;-61
2021/06/24 07:49:11;;;;;;;17.70;5.57;;;;;;;43.62;21.11;99849.75;4835175;29;20145;-61
2021/06/24 07:51:37;;;;;;;7.38;5.15;;;;;;;43.53;20.52;99852.19;4834069;29;20042;-60
2021/06/24 07:54:03;;;;;;;13.45;5.63;;;;;;;44.17;19.96;99849.25;4835202;29;20048;-59
2021/06/24 07:56:29;;;;;;;19.98;7.32;;;;;;;45.05;19.33;99855.53;4835574;29;20425;-60
2021/06/24 07:58:54;;;;;;;11.82;6.10;;;;;;;44.98;19.59;99847.53;4835118;29;20050;-60
2021/06/24 08:01:20;;;;;;;11.15;5.53;;;;;;;44.71;19.60;99849.69;4835051;29;20532;-60
2021/06/24 08:03:46;;;;;;;15.23;6.65;;;;;;;44.79;19.37;99849.19;4832391;29;20052;-59
2021/06/24 08:06:12;;;;;;;8.23;6.13;;;;;;;44.30;19.15;99844.09;4836283;29;20042;-60
2021/06/24 08:08:38;;;;;;;14.07;5.78;;;;;;;44.12;19.52;99844.56;4834926;29;20050;-61
2021/06/24 08:11:04;;;;;;;16.90;6.47;;;;;;;44.46;19.84;99836.75;4838257;29;20764;-59
2021/06/24 08:13:30;;;;;;;15.90;6.30;;;;;;;44.67;19.92;99838.47;4834127;29;20190;-59
2021/06/24 08:15:57;;;;;;;14.00;6.70;;;;;;;44.55;19.59;99848.00;5269833;23;20058;-59
2021/06/24 08:18:23;;;;;;;14.57;6.50;;;;;;;45.20;19.92;99835.47;4815973;29;20457;-59
2021/06/24 08:20:49;;;;;;;14.45;7.47;;;;;;;45.78;19.18;99834.00;4817755;29;20366;-59
2021/06/24 08:23:19;;;;;;;19.30;6.38;;;;;;;45.80;18.59;99829.09;4800169;29;20529;-61
2021/06/24 08:25:45;;;;;;;17.02;8.63;;;;;;;46.46;18.57;99839.78;4816041;29;20121;-59
2021/06/24 08:28:11;;;;;;;13.50;6.75;;;;;;;47.06;18.26;99842.13;4819077;29;20767;-57
2021/06/24 08:30:41;;;;;;;16.00;7.43;;;;;;;47.53;17.85;99843.34;4803090;29;20054;-60
2021/06/24 08:33:07;;;;;;;18.27;7.82;;;;;;;47.07;17.60;99832.75;4815236;29;20191;-54
2021/06/24 08:35:33;;;;;;;15.35;7.32;;;;;;;46.47;17.72;99839.50;4824793;29;20133;-59
2021/06/24 08:38:00;;;;;;;17.17;7.47;;;;;;;45.97;18.07;99833.13;4803794;29;20543;-61
2021/06/24 08:40:26;;;;;;;13.10;7.07;;;;;;;45.81;18.16;99834.28;4816907;29;20173;-59
2021/06/24 08:42:51;;;;;;;15.88;7.22;;;;;;;45.81;18.53;99826.03;4817709;29;20042;-59
2021/06/24 08:45:17;;;;;;;11.00;7.07;;;;;;;46.51;18.16;99832.31;4816496;29;20133;-60
2021/06/24 08:47:46;;;;;;;14.30;7.80;;;;;;;47.06;17.98;99838.56;5292543;23;20066;-60
2021/06/24 08:50:14;;;;;;;12.70;7.00;;;;;;;47.34;17.20;99832.28;4807893;29;20121;-60
2021/06/24 08:52:44;;;;;;;17.88;7.43;;;;;;;46.89;17.42;99827.94;4817720;29;20122;-60
2021/06/24 08:55:10;;;;;;;13.15;7.22;;;;;;;46.80;17.70;99828.88;4821913;29;20042;-59
2021/06/24 08:58:00;;;;;;;9.27;6.60;;;;;;;45.85;17.39;99834.56;5274129;23;20414;-55
2021/06/24 09:00:26;;;;;;;22.92;7.15;;;;;;;45.64;17.84;99833.78;4813421;29;20080;-58
2021/06/24 09:06:33;;;;;;;12.57;7.07;;;;;;;47.35;16.78;99831.16;4819964;29;20433;-58
2021/06/24 09:09:00;;;;;;;11.68;7.53;;;;;;;47.40;17.10;99841.31;4818724;29;20133;-58
2021/06/24 09:11:28;;;;;;;14.63;7.05;;;;;;;47.16;17.00;99838.50;4815620;29;20062;-59
2021/06/24 09:14:04;;;;;;;15.43;7.72;;;;;;;47.10;16.88;99823.13;4816808;29;20042;-58
2021/06/24 09:16:31;;;;;;;12.87;7.60;;;;;;;47.12;17.29;99818.13;4815222;29;20046;-56
2021/06/24 09:19:17;;;;;;;13.57;7.45;;;;;;;47.19;17.74;99816.69;4815764;29;20047;-57
2021/06/24 09:21:45;;;;;;;14.02;7.57;;;;;;;47.03;17.99;99823.44;4815321;29;20533;-56
2021/06/24 09:24:25;;;;;;;14.25;7.68;;;;;;;46.72;17.55;99822.84;4820282;29;20137;-55
2021/06/24 09:26:51;;;;;;;14.68;7.55;;;;;;;47.37;16.74;99828.91;4821510;29;20050;-56
2021/06/24 09:29:18;;;;;;;10.15;7.35;;;;;;;46.54;16.88;99820.75;4818631;29;20129;-56
2021/06/24 09:31:44;;;;;;;13.40;7.45;;;;;;;46.49;16.78;99814.44;4800555;29;20494;-59
2021/06/24 09:34:13;;;;;;;16.98;7.00;;;;;;;45.97;17.15;99822.13;4824113;29;20038;-57
2021/06/24 09:36:45;;;;;;;12.48;7.55;;;;;;;46.44;17.31;99814.47;4816977;29;20046;-57
2021/06/24 09:39:24;;;;;;;13.85;6.97;;;;;;;46.65;16.81;99816.84;4823180;29;20043;-57
2021/06/24 09:42:01;;;;;;;15.48;7.88;;;;;;;47.18;16.90;99812.28;4822038;29;20088;-53
2021/06/24 09:44:27;;;;;;;;;;;;;;;47.14;16.77;99808.47;4822177;29;20498;-57
2021/06/24 09:46:53;;;;;;;14.37;7.60;;;;;;;46.25;17.75;99800.59;4822230;29;19924;-56
2021/06/24 09:49:27;;;;;;;12.15;8.15;;;;;;;45.90;18.01;99807.06;4820181;29;20150;-56
2021/06/24 09:51:53;;;;;;;17.15;7.72;;;;;;;45.59;18.35;99809.06;4819057;29;20046;-57
2021/06/24 09:54:19;;;;;;;15.15;7.38;;;;;;;46.61;17.38;99813.03;4818572;29;21827;-56
2021/06/24 09:56:51;;;;;;;13.07;7.28;;;;;;;46.52;17.09;99805.63;4823768;29;20133;-56
2021/06/24 09:59:18;;;;;;;14.48;7.40;;;;;;;46.67;16.70;99811.88;4821225;29;20386;-57
2021/06/24 10:01:45;;;;;;;15.10;7.72;;;;;;;46.44;17.42;99808.97;4817391;29;20533;-58
2021/06/24 10:04:20;;;;;;;17.45;7.15;;;;;;;46.52;17.08;99811.97;4823056;29;20079;-56
2021/06/24 10:06:51;;;;;;;13.80;7.70;;;;;;;47.21;16.40;99808.13;4823217;29;20054;-58
2021/06/24 10:09:18;;;;;;;12.60;6.80;;;;;;;46.55;16.97;99803.16;4820143;29;20066;-58
2021/06/24 10:11:44;;;;;;;15.73;8.07;;;;;;;46.45;16.78;99808.69;4818683;29;20622;-63
2021/06/24 10:14:10;;;;;;;10.90;7.30;;;;;;;46.65;16.84;99805.00;4813954;29;20043;-62
2021/06/24 10:16:36;;;;;;;13.95;7.07;;;;;;;47.06;16.45;99806.34;4818288;29;20114;-64
2021/06/24 10:19:03;;;;;;;14.60;7.70;;;;;;;47.61;16.58;99809.66;4815740;29;20050;-62
2021/06/24 10:21:30;;;;;;;15.13;7.60;;;;;;;47.92;16.33;99810.13;4818716;29;20042;-61
2021/06/24 10:23:57;;;;;;;;;;;;;;;48.05;16.39;99803.94;4817485;29;20438;-62
2021/06/24 10:26:24;;;;;;;15.18;7.22;;;;;;;47.62;16.70;99805.78;4799081;29;20015;-64
2021/06/24 10:29:08;;;;;;;26.67;7.82;;;;;;;47.80;16.86;99802.28;4821308;29;20042;-63
2021/06/24 10:31:55;;;;;;;15.07;7.50;;;;;;;48.42;16.15;99801.19;4816171;29;20054;-63
2021/06/24 10:34:21;;;;;;;15.73;7.68;;;;;;;48.92;15.80;99803.47;4817456;29;20573;-63
2021/06/24 10:37:08;;;;;;;13.20;7.93;;;;;;;49.14;15.56;99811.94;4818957;29;20042;-62
2021/06/24 10:39:35;;;;;;;15.70;7.93;;;;;;;47.52;15.99;99801.22;5302421;23;20185;-61
2021/06/24 10:42:15;;;;;;;12.15;7.63;;;;;;;47.78;16.22;99803.69;4820381;29;20046;-60
2021/06/24 10:44:56;;;;;;;15.77;7.90;;;;;;;48.02;16.18;99792.66;4822608;29;20469;-63
2021/06/24 10:47:35;;;;;;;16.38;8.25;;;;;;;48.65;15.96;99799.47;4822849;29;20813;-62
2021/06/24 10:52:55;;;;;;;14.23;9.70;;;;;;;48.97;15.78;99793.16;4818563;29;20418;-64
2021/06/24 10:55:41;;;;;;;;;;;;;;;49.17;15.82;99778.16;4818144;29;20446;-61
2021/06/24 10:58:19;;;;;;;13.40;8.25;;;;;;;48.70;15.76;99790.28;4818707;29;19924;-63
2021/06/24 11:00:52;;;;;;;13.35;7.88;;;;;;;47.08;16.53;99784.03;5289125;24;20580;-63
2021/06/24 11:03:25;;;;;;;10.48;7.78;;;;;;;46.41;17.63;99779.31;4806310;29;20069;-66
2021/06/24 11:05:54;;;;;;;15.55;8.13;;;;;;;46.62;17.60;99776.16;4821774;29;20057;-65
2021/06/24 11:08:30;;;;;;;16.48;8.00;;;;;;;47.13;17.05;99776.53;4822314;29;20106;-61
2021/06/24 11:11:08;;;;;;;11.93;8.03;;;;;;;47.81;16.64;99779.09;4819973;29;20054;-63
2021/06/24 11:16:21;;;;;;;16.25;7.43;;;;;;;46.58;17.48;99774.25;4817119;29;20506;-64
2021/06/24 11:18:48;;;;;;;12.30;7.93;;;;;;;46.88;17.34;99773.16;4818308;29;20050;-67
2021/06/24 11:21:29;;;;;;;15.82;8.20;;;;;;;47.08;17.52;99775.75;5288053;24;21408;-68
2021/06/24 11:24:00;;;;;;;11.68;8.00;;;;;;;46.85;17.37;99769.03;4808716;29;20069;-65
2021/06/24 11:26:26;;;;;;;8.80;7.90;;;;;;;46.52;17.16;99767.94;4821652;29;20050;-66
2021/06/24 11:28:56;;;;;;;14.30;7.45;;;;;;;46.06;17.78;99766.56;4822207;29;20134;-67
2021/06/24 11:31:49;;;;;;;14.32;7.38;;;;;;;45.78;18.28;99765.28;4820959;29;20046;-65
2021/06/24 11:37:07;;;;;;;9.75;6.85;;;;;;;46.58;17.29;99766.00;4800119;29;20046;-66
2021/06/24 11:39:36;;;;;;;13.95;7.55;;;;;;;46.50;17.24;99750.88;4799699;29;20125;-65
2021/06/24 11:42:04;;;;;;;17.63;7.30;;;;;;;47.19;17.60;99756.09;4798398;29;20047;-64
2021/06/24 11:44:32;;;;;;;11.10;7.45;;;;;;;47.28;16.86;99753.53;4798466;29;20050;-65
2021/06/24 11:47:06;;;;;;;15.30;7.85;;;;;;;46.89;17.90;99742.59;4799457;29;20332;-66
2021/06/24 12:04:15;;;;;;;17.25;7.75;;;;;;;46.69;16.98;99723.53;4849249;23;20521;-67
2021/06/24 12:06:44;;;;;;;7.68;6.95;;;;;;;46.21;17.91;99731.59;4828230;29;20058;-60
2021/06/24 12:09:10;;;;;;;11.63;7.43;;;;;;;46.03;18.12;99728.63;4824906;29;20078;-63